Bowman Field (LOU)

 

Airport Diagram
Current Weather/Forecast (MVFR Conditions)
METAR KLOU 211453Z 22006KT 10SM OVC015 06/01 A2993 RMK AO2 SLP138 T00560011 55002
TAF

Airport Information

All Charts
General
Chart Name View
AIRPORT DIAGRAM
AIRPORT DIAGRAM
TAKEOFF MINIMUMS
ALTERNATE MINIMUMS
TAKEOFF MINIMUMS
ALTERNATE MINIMUMS
HOT SPOT
HOT SPOT

Arrivals
Chart Name Download
CHERI FOUR
DARBY SEVEN
REDSTONE SIX
CHERI FOUR
DARBY SEVEN
REDSTONE SIX

Approaches
Chart Name Download
RNAV (GPS) RWY 24
RNAV (GPS) RWY 33
NDB RWY 33
RNAV (GPS) RWY 24
RNAV (GPS) RWY 33
NDB RWY 33


Airport Statistics
Departures Arrivals Local
All Collected Stats since June 2016: 135 94 25
2021 Stats: 4 3 0
January Stats: 4 3 1

Inbound Traffic (Arrivals) - 0

No inbound traffic.


Outbound Traffic (Departures) - 0

No outbound traffic.


Local Traffic (Pattern) - 0

No local traffic.